sensor_id;sensor_type;location;lat;lon;timestamp;P1;durP1;ratioP1;P2;durP2;ratioP2
37517;SDS011;23366;52.498;13.446;2023-02-17T00:01:22;25.15;;;12.48;;
37517;SDS011;23366;52.498;13.446;2023-02-17T00:03:49;27.02;;;12.63;;
37517;SDS011;23366;52.498;13.446;2023-02-17T00:06:16;28.40;;;14.88;;
37517;SDS011;23366;52.498;13.446;2023-02-17T00:08:43;28.85;;;14.40;;
37517;SDS011;23366;52.498;13.446;2023-02-17T00:11:09;26.80;;;14.13;;
37517;SDS011;23366;52.498;13.446;2023-02-17T00:13:35;29.95;;;14.48;;
37517;SDS011;23366;52.498;13.446;2023-02-17T00:16:08;29.70;;;14.25;;
37517;SDS011;23366;52.498;13.446;2023-02-17T00:18:41;31.90;;;15.80;;
37517;SDS011;23366;52.498;13.446;2023-02-17T00:21:12;36.92;;;17.20;;
37517;SDS011;23366;52.498;13.446;2023-02-17T00:23:42;26.70;;;14.38;;
37517;SDS011;23366;52.498;13.446;2023-02-17T00:26:08;32.08;;;15.38;;
37517;SDS011;23366;52.498;13.446;2023-02-17T00:28:34;28.42;;;14.73;;
37517;SDS011;23366;52.498;13.446;2023-02-17T00:31:03;26.88;;;13.43;;
37517;SDS011;23366;52.498;13.446;2023-02-17T00:33:30;29.75;;;15.18;;
37517;SDS011;23366;52.498;13.446;2023-02-17T00:35:55;29.20;;;15.23;;
37517;SDS011;23366;52.498;13.446;2023-02-17T00:38:21;30.60;;;16.05;;
37517;SDS011;23366;52.498;13.446;2023-02-17T00:40:46;31.50;;;16.13;;
37517;SDS011;23366;52.498;13.446;2023-02-17T00:43:12;36.10;;;17.40;;
37517;SDS011;23366;52.498;13.446;2023-02-17T00:45:38;37.17;;;15.57;;
37517;SDS011;23366;52.498;13.446;2023-02-17T00:48:03;25.35;;;16.05;;
37517;SDS011;23366;52.498;13.446;2023-02-17T00:50:29;27.23;;;15.68;;
37517;SDS011;23366;52.498;13.446;2023-02-17T00:52:54;34.85;;;16.17;;
37517;SDS011;23366;52.498;13.446;2023-02-17T00:55:20;27.73;;;15.23;;
37517;SDS011;23366;52.498;13.446;2023-02-17T00:57:45;30.50;;;17.45;;
37517;SDS011;23366;52.498;13.446;2023-02-17T01:00:11;29.00;;;14.70;;
37517;SDS011;23366;52.498;13.446;2023-02-17T01:02:37;33.25;;;16.55;;
37517;SDS011;23366;52.498;13.446;2023-02-17T01:05:03;29.42;;;14.50;;
37517;SDS011;23366;52.498;13.446;2023-02-17T01:07:28;31.88;;;15.95;;
37517;SDS011;23366;52.498;13.446;2023-02-17T01:09:54;34.08;;;16.17;;
37517;SDS011;23366;52.498;13.446;2023-02-17T01:12:19;31.80;;;16.75;;
37517;SDS011;23366;52.498;13.446;2023-02-17T01:14:46;35.00;;;17.17;;
37517;SDS011;23366;52.498;13.446;2023-02-17T01:17:11;31.83;;;16.33;;
37517;SDS011;23366;52.498;13.446;2023-02-17T01:19:37;28.13;;;15.40;;
37517;SDS011;23366;52.498;13.446;2023-02-17T01:22:02;32.13;;;16.48;;
37517;SDS011;23366;52.498;13.446;2023-02-17T01:24:28;30.70;;;15.55;;
37517;SDS011;23366;52.498;13.446;2023-02-17T01:26:53;30.30;;;15.50;;
37517;SDS011;23366;52.498;13.446;2023-02-17T01:29:19;29.95;;;16.52;;
37517;SDS011;23366;52.498;13.446;2023-02-17T01:31:44;33.85;;;16.35;;
37517;SDS011;23366;52.498;13.446;2023-02-17T01:34:10;31.90;;;16.30;;
37517;SDS011;23366;52.498;13.446;2023-02-17T01:36:36;31.15;;;16.92;;
37517;SDS011;23366;52.498;13.446;2023-02-17T01:39:01;28.02;;;13.10;;
37517;SDS011;23366;52.498;13.446;2023-02-17T01:41:27;31.83;;;15.48;;
37517;SDS011;23366;52.498;13.446;2023-02-17T01:46:50;34.80;;;15.55;;
37517;SDS011;23366;52.498;13.446;2023-02-17T01:52:02;30.30;;;15.45;;
37517;SDS011;23366;52.498;13.446;2023-02-17T01:54:33;29.70;;;16.13;;
37517;SDS011;23366;52.498;13.446;2023-02-17T01:57:18;32.03;;;15.30;;
37517;SDS011;23366;52.498;13.446;2023-02-17T01:59:48;31.45;;;16.10;;
37517;SDS011;23366;52.498;13.446;2023-02-17T02:02:13;29.15;;;15.68;;
37517;SDS011;23366;52.498;13.446;2023-02-17T02:04:42;27.35;;;14.05;;
37517;SDS011;23366;52.498;13.446;2023-02-17T02:07:12;33.75;;;15.65;;
37517;SDS011;23366;52.498;13.446;2023-02-17T02:09:42;26.60;;;15.80;;
37517;SDS011;23366;52.498;13.446;2023-02-17T02:12:21;27.95;;;14.80;;
37517;SDS011;23366;52.498;13.446;2023-02-17T02:14:52;30.38;;;14.48;;
37517;SDS011;23366;52.498;13.446;2023-02-17T02:17:30;29.85;;;15.50;;
37517;SDS011;23366;52.498;13.446;2023-02-17T02:25:38;33.95;;;17.80;;
37517;SDS011;23366;52.498;13.446;2023-02-17T02:31:18;35.35;;;19.20;;
37517;SDS011;23366;52.498;13.446;2023-02-17T02:34:07;37.80;;;19.10;;
37517;SDS011;23366;52.498;13.446;2023-02-17T02:36:44;42.00;;;17.55;;
37517;SDS011;23366;52.498;13.446;2023-02-17T02:39:24;36.70;;;17.58;;
37517;SDS011;23366;52.498;13.446;2023-02-17T02:41:59;32.92;;;16.15;;
37517;SDS011;23366;52.498;13.446;2023-02-17T02:44:29;31.85;;;15.82;;
37517;SDS011;23366;52.498;13.446;2023-02-17T02:46:55;33.55;;;16.90;;
37517;SDS011;23366;52.498;13.446;2023-02-17T02:49:25;32.08;;;16.00;;
37517;SDS011;23366;52.498;13.446;2023-02-17T02:51:58;43.83;;;19.55;;
37517;SDS011;23366;52.498;13.446;2023-02-17T02:58:05;32.10;;;16.40;;
37517;SDS011;23366;52.498;13.446;2023-02-17T03:00:43;37.15;;;18.85;;
37517;SDS011;23366;52.498;13.446;2023-02-17T03:03:17;34.88;;;17.23;;
37517;SDS011;23366;52.498;13.446;2023-02-17T03:06:08;37.05;;;17.35;;
37517;SDS011;23366;52.498;13.446;2023-02-17T03:09:23;31.48;;;17.20;;
37517;SDS011;23366;52.498;13.446;2023-02-17T03:14:18;30.80;;;16.52;;
37517;SDS011;23366;52.498;13.446;2023-02-17T03:16:44;34.58;;;17.58;;
37517;SDS011;23366;52.498;13.446;2023-02-17T03:19:10;37.33;;;18.23;;
37517;SDS011;23366;52.498;13.446;2023-02-17T03:21:38;36.85;;;18.35;;
37517;SDS011;23366;52.498;13.446;2023-02-17T03:24:16;39.63;;;18.63;;
37517;SDS011;23366;52.498;13.446;2023-02-17T03:26:42;35.67;;;18.00;;
37517;SDS011;23366;52.498;13.446;2023-02-17T03:29:08;40.67;;;17.90;;
37517;SDS011;23366;52.498;13.446;2023-02-17T03:31:33;44.50;;;20.40;;
37517;SDS011;23366;52.498;13.446;2023-02-17T03:33:59;38.13;;;17.38;;
37517;SDS011;23366;52.498;13.446;2023-02-17T03:36:25;36.95;;;17.55;;
37517;SDS011;23366;52.498;13.446;2023-02-17T03:38:51;36.70;;;20.35;;
37517;SDS011;23366;52.498;13.446;2023-02-17T03:41:17;40.55;;;20.60;;
37517;SDS011;23366;52.498;13.446;2023-02-17T03:43:42;36.05;;;15.80;;
37517;SDS011;23366;52.498;13.446;2023-02-17T03:46:11;35.58;;;17.23;;
37517;SDS011;23366;52.498;13.446;2023-02-17T03:48:38;39.83;;;18.70;;
37517;SDS011;23366;52.498;13.446;2023-02-17T03:51:10;39.53;;;20.83;;
37517;SDS011;23366;52.498;13.446;2023-02-17T03:53:39;34.13;;;15.50;;
37517;SDS011;23366;52.498;13.446;2023-02-17T03:56:06;40.08;;;18.88;;
37517;SDS011;23366;52.498;13.446;2023-02-17T03:58:32;40.20;;;19.60;;
37517;SDS011;23366;52.498;13.446;2023-02-17T04:00:58;36.58;;;18.50;;
37517;SDS011;23366;52.498;13.446;2023-02-17T04:03:23;33.25;;;16.70;;
37517;SDS011;23366;52.498;13.446;2023-02-17T04:05:49;40.10;;;19.30;;
37517;SDS011;23366;52.498;13.446;2023-02-17T04:08:15;43.22;;;18.83;;
37517;SDS011;23366;52.498;13.446;2023-02-17T04:10:40;36.10;;;19.58;;
37517;SDS011;23366;52.498;13.446;2023-02-17T04:13:06;36.47;;;16.90;;
37517;SDS011;23366;52.498;13.446;2023-02-17T04:15:31;37.58;;;18.58;;
37517;SDS011;23366;52.498;13.446;2023-02-17T04:17:57;38.88;;;17.92;;
37517;SDS011;23366;52.498;13.446;2023-02-17T04:20:23;36.60;;;17.88;;
37517;SDS011;23366;52.498;13.446;2023-02-17T04:22:48;35.88;;;17.58;;
37517;SDS011;23366;52.498;13.446;2023-02-17T04:25:14;35.42;;;18.35;;
37517;SDS011;23366;52.498;13.446;2023-02-17T04:27:39;38.85;;;19.48;;
37517;SDS011;23366;52.498;13.446;2023-02-17T04:30:05;46.53;;;19.63;;
37517;SDS011;23366;52.498;13.446;2023-02-17T04:32:31;34.50;;;17.90;;
37517;SDS011;23366;52.498;13.446;2023-02-17T04:34:56;37.15;;;19.13;;
37517;SDS011;23366;52.498;13.446;2023-02-17T04:37:22;30.90;;;17.95;;
37517;SDS011;23366;52.498;13.446;2023-02-17T04:39:47;34.05;;;16.58;;
37517;SDS011;23366;52.498;13.446;2023-02-17T04:42:13;35.25;;;17.27;;
37517;SDS011;23366;52.498;13.446;2023-02-17T04:44:38;39.33;;;18.27;;
37517;SDS011;23366;52.498;13.446;2023-02-17T04:47:04;42.38;;;20.85;;
37517;SDS011;23366;52.498;13.446;2023-02-17T04:49:29;30.08;;;16.63;;
37517;SDS011;23366;52.498;13.446;2023-02-17T04:51:55;34.75;;;18.83;;
37517;SDS011;23366;52.498;13.446;2023-02-17T04:54:20;34.47;;;19.10;;
37517;SDS011;23366;52.498;13.446;2023-02-17T04:56:46;40.28;;;19.60;;
37517;SDS011;23366;52.498;13.446;2023-02-17T04:59:12;37.25;;;17.42;;
37517;SDS011;23366;52.498;13.446;2023-02-17T05:01:38;38.58;;;18.92;;
37517;SDS011;23366;52.498;13.446;2023-02-17T05:04:03;37.22;;;17.95;;
37517;SDS011;23366;52.498;13.446;2023-02-17T05:06:29;40.97;;;17.17;;
37517;SDS011;23366;52.498;13.446;2023-02-17T05:08:54;33.00;;;17.25;;
37517;SDS011;23366;52.498;13.446;2023-02-17T05:11:20;33.35;;;17.50;;
37517;SDS011;23366;52.498;13.446;2023-02-17T05:13:46;37.95;;;18.48;;
37517;SDS011;23366;52.498;13.446;2023-02-17T05:16:11;35.15;;;17.90;;
37517;SDS011;23366;52.498;13.446;2023-02-17T05:18:37;42.13;;;19.80;;
37517;SDS011;23366;52.498;13.446;2023-02-17T05:21:02;39.00;;;18.40;;
37517;SDS011;23366;52.498;13.446;2023-02-17T05:23:28;45.58;;;20.17;;
37517;SDS011;23366;52.498;13.446;2023-02-17T05:25:53;32.20;;;18.85;;
37517;SDS011;23366;52.498;13.446;2023-02-17T05:28:19;35.70;;;16.20;;
37517;SDS011;23366;52.498;13.446;2023-02-17T05:30:46;41.33;;;17.20;;
37517;SDS011;23366;52.498;13.446;2023-02-17T05:33:13;35.78;;;17.45;;
37517;SDS011;23366;52.498;13.446;2023-02-17T05:35:38;44.10;;;19.60;;
37517;SDS011;23366;52.498;13.446;2023-02-17T05:38:04;36.30;;;19.15;;
37517;SDS011;23366;52.498;13.446;2023-02-17T05:40:29;33.83;;;18.00;;
37517;SDS011;23366;52.498;13.446;2023-02-17T05:42:55;34.67;;;17.38;;
37517;SDS011;23366;52.498;13.446;2023-02-17T05:45:20;41.03;;;18.80;;
37517;SDS011;23366;52.498;13.446;2023-02-17T05:47:46;37.72;;;20.23;;
37517;SDS011;23366;52.498;13.446;2023-02-17T05:50:11;34.08;;;16.98;;
37517;SDS011;23366;52.498;13.446;2023-02-17T05:52:37;40.83;;;18.95;;
37517;SDS011;23366;52.498;13.446;2023-02-17T05:55:02;39.92;;;19.15;;
37517;SDS011;23366;52.498;13.446;2023-02-17T05:57:29;37.00;;;18.75;;
37517;SDS011;23366;52.498;13.446;2023-02-17T05:59:54;43.95;;;20.55;;
37517;SDS011;23366;52.498;13.446;2023-02-17T06:02:22;38.97;;;19.60;;
37517;SDS011;23366;52.498;13.446;2023-02-17T06:04:48;45.88;;;19.27;;
37517;SDS011;23366;52.498;13.446;2023-02-17T06:07:14;36.13;;;17.30;;
37517;SDS011;23366;52.498;13.446;2023-02-17T06:09:39;38.25;;;17.50;;
37517;SDS011;23366;52.498;13.446;2023-02-17T06:12:05;37.65;;;18.80;;
37517;SDS011;23366;52.498;13.446;2023-02-17T06:14:30;40.88;;;17.20;;
37517;SDS011;23366;52.498;13.446;2023-02-17T06:16:56;38.13;;;19.45;;
37517;SDS011;23366;52.498;13.446;2023-02-17T06:19:22;38.40;;;17.05;;
37517;SDS011;23366;52.498;13.446;2023-02-17T06:21:48;33.55;;;17.98;;
37517;SDS011;23366;52.498;13.446;2023-02-17T06:24:13;43.55;;;17.88;;
37517;SDS011;23366;52.498;13.446;2023-02-17T06:26:39;36.00;;;18.55;;
37517;SDS011;23366;52.498;13.446;2023-02-17T06:29:05;35.42;;;17.83;;
37517;SDS011;23366;52.498;13.446;2023-02-17T06:31:30;41.20;;;21.02;;
37517;SDS011;23366;52.498;13.446;2023-02-17T06:33:56;43.35;;;20.10;;
37517;SDS011;23366;52.498;13.446;2023-02-17T06:36:22;38.50;;;19.88;;
37517;SDS011;23366;52.498;13.446;2023-02-17T06:38:47;38.22;;;16.60;;
37517;SDS011;23366;52.498;13.446;2023-02-17T06:41:13;39.03;;;19.50;;
37517;SDS011;23366;52.498;13.446;2023-02-17T06:43:39;37.88;;;18.17;;
37517;SDS011;23366;52.498;13.446;2023-02-17T06:46:04;35.70;;;17.95;;
37517;SDS011;23366;52.498;13.446;2023-02-17T06:48:30;39.00;;;17.65;;
37517;SDS011;23366;52.498;13.446;2023-02-17T06:50:57;33.35;;;16.35;;
37517;SDS011;23366;52.498;13.446;2023-02-17T06:53:23;34.70;;;16.63;;
37517;SDS011;23366;52.498;13.446;2023-02-17T06:55:49;37.53;;;17.38;;
37517;SDS011;23366;52.498;13.446;2023-02-17T06:58:15;34.65;;;17.42;;
37517;SDS011;23366;52.498;13.446;2023-02-17T07:00:40;38.63;;;19.95;;
37517;SDS011;23366;52.498;13.446;2023-02-17T07:03:06;38.25;;;18.95;;
37517;SDS011;23366;52.498;13.446;2023-02-17T07:05:35;29.05;;;14.85;;
37517;SDS011;23366;52.498;13.446;2023-02-17T07:08:01;31.77;;;16.00;;
37517;SDS011;23366;52.498;13.446;2023-02-17T07:10:28;30.55;;;15.13;;
37517;SDS011;23366;52.498;13.446;2023-02-17T07:12:54;36.88;;;18.05;;
37517;SDS011;23366;52.498;13.446;2023-02-17T07:15:19;40.20;;;18.45;;
37517;SDS011;23366;52.498;13.446;2023-02-17T07:17:45;30.48;;;15.82;;
37517;SDS011;23366;52.498;13.446;2023-02-17T07:20:11;28.55;;;14.60;;
37517;SDS011;23366;52.498;13.446;2023-02-17T07:22:37;33.05;;;16.67;;
37517;SDS011;23366;52.498;13.446;2023-02-17T07:25:03;29.30;;;15.90;;
37517;SDS011;23366;52.498;13.446;2023-02-17T07:27:29;31.15;;;14.82;;
37517;SDS011;23366;52.498;13.446;2023-02-17T07:29:56;27.63;;;13.60;;
37517;SDS011;23366;52.498;13.446;2023-02-17T07:32:22;28.40;;;15.73;;
37517;SDS011;23366;52.498;13.446;2023-02-17T07:34:47;29.50;;;14.77;;
37517;SDS011;23366;52.498;13.446;2023-02-17T07:37:13;24.55;;;13.98;;
37517;SDS011;23366;52.498;13.446;2023-02-17T07:39:38;32.60;;;15.52;;
37517;SDS011;23366;52.498;13.446;2023-02-17T07:42:04;25.67;;;14.23;;
37517;SDS011;23366;52.498;13.446;2023-02-17T07:44:30;28.30;;;14.85;;
37517;SDS011;23366;52.498;13.446;2023-02-17T07:46:56;20.95;;;11.68;;
37517;SDS011;23366;52.498;13.446;2023-02-17T07:49:22;24.98;;;13.63;;
37517;SDS011;23366;52.498;13.446;2023-02-17T07:51:47;23.33;;;12.43;;
37517;SDS011;23366;52.498;13.446;2023-02-17T07:54:13;26.92;;;12.95;;
37517;SDS011;23366;52.498;13.446;2023-02-17T07:56:39;27.80;;;16.15;;
37517;SDS011;23366;52.498;13.446;2023-02-17T07:59:08;22.55;;;12.73;;
37517;SDS011;23366;52.498;13.446;2023-02-17T08:01:35;26.58;;;14.32;;
37517;SDS011;23366;52.498;13.446;2023-02-17T08:04:01;27.67;;;15.90;;
37517;SDS011;23366;52.498;13.446;2023-02-17T08:06:26;22.20;;;12.52;;
37517;SDS011;23366;52.498;13.446;2023-02-17T08:08:52;23.25;;;13.25;;
37517;SDS011;23366;52.498;13.446;2023-02-17T08:11:48;31.67;;;14.15;;
37517;SDS011;23366;52.498;13.446;2023-02-17T08:14:32;23.00;;;12.32;;
37517;SDS011;23366;52.498;13.446;2023-02-17T08:16:58;25.88;;;13.95;;
37517;SDS011;23366;52.498;13.446;2023-02-17T08:19:24;21.83;;;11.95;;
37517;SDS011;23366;52.498;13.446;2023-02-17T08:21:50;26.42;;;12.38;;
37517;SDS011;23366;52.498;13.446;2023-02-17T08:24:16;20.02;;;10.18;;
37517;SDS011;23366;52.498;13.446;2023-02-17T08:26:43;19.58;;;12.43;;
37517;SDS011;23366;52.498;13.446;2023-02-17T08:29:09;23.00;;;11.23;;
37517;SDS011;23366;52.498;13.446;2023-02-17T08:31:35;16.45;;;10.50;;
37517;SDS011;23366;52.498;13.446;2023-02-17T08:34:03;21.98;;;11.10;;
37517;SDS011;23366;52.498;13.446;2023-02-17T08:36:29;14.52;;;10.05;;
37517;SDS011;23366;52.498;13.446;2023-02-17T08:38:56;17.85;;;10.52;;
37517;SDS011;23366;52.498;13.446;2023-02-17T08:41:26;19.90;;;11.02;;
37517;SDS011;23366;52.498;13.446;2023-02-17T08:43:54;18.08;;;11.75;;
37517;SDS011;23366;52.498;13.446;2023-02-17T08:46:21;21.92;;;11.25;;
37517;SDS011;23366;52.498;13.446;2023-02-17T08:48:47;20.50;;;10.05;;
37517;SDS011;23366;52.498;13.446;2023-02-17T08:51:13;19.85;;;10.82;;
37517;SDS011;23366;52.498;13.446;2023-02-17T08:53:41;20.42;;;11.80;;
37517;SDS011;23366;52.498;13.446;2023-02-17T08:56:07;18.73;;;11.00;;
37517;SDS011;23366;52.498;13.446;2023-02-17T08:58:33;17.58;;;10.82;;
37517;SDS011;23366;52.498;13.446;2023-02-17T09:01:00;19.73;;;11.30;;
37517;SDS011;23366;52.498;13.446;2023-02-17T09:03:25;22.08;;;12.27;;
37517;SDS011;23366;52.498;13.446;2023-02-17T09:05:55;25.13;;;12.82;;
37517;SDS011;23366;52.498;13.446;2023-02-17T09:08:22;20.50;;;11.15;;
37517;SDS011;23366;52.498;13.446;2023-02-17T09:10:48;22.42;;;12.93;;
37517;SDS011;23366;52.498;13.446;2023-02-17T09:13:14;20.38;;;11.70;;
37517;SDS011;23366;52.498;13.446;2023-02-17T09:15:40;23.88;;;12.82;;
37517;SDS011;23366;52.498;13.446;2023-02-17T09:18:06;20.92;;;10.85;;
37517;SDS011;23366;52.498;13.446;2023-02-17T09:20:31;22.08;;;11.98;;
37517;SDS011;23366;52.498;13.446;2023-02-17T09:22:57;19.55;;;12.82;;
37517;SDS011;23366;52.498;13.446;2023-02-17T09:25:22;21.65;;;12.13;;
37517;SDS011;23366;52.498;13.446;2023-02-17T09:27:48;21.40;;;13.90;;
37517;SDS011;23366;52.498;13.446;2023-02-17T09:30:14;22.13;;;13.43;;
37517;SDS011;23366;52.498;13.446;2023-02-17T09:32:43;26.88;;;13.95;;
37517;SDS011;23366;52.498;13.446;2023-02-17T09:35:12;21.80;;;11.98;;
37517;SDS011;23366;52.498;13.446;2023-02-17T09:37:39;21.42;;;12.52;;
37517;SDS011;23366;52.498;13.446;2023-02-17T09:40:05;23.98;;;11.18;;
37517;SDS011;23366;52.498;13.446;2023-02-17T09:42:32;30.00;;;14.27;;
37517;SDS011;23366;52.498;13.446;2023-02-17T09:45:05;22.35;;;12.77;;
37517;SDS011;23366;52.498;13.446;2023-02-17T09:47:42;23.35;;;11.80;;
37517;SDS011;23366;52.498;13.446;2023-02-17T09:50:18;23.02;;;12.07;;
37517;SDS011;23366;52.498;13.446;2023-02-17T09:52:53;20.88;;;11.57;;
37517;SDS011;23366;52.498;13.446;2023-02-17T09:55:33;24.23;;;13.88;;
37517;SDS011;23366;52.498;13.446;2023-02-17T10:01:05;23.25;;;13.77;;
37517;SDS011;23366;52.498;13.446;2023-02-17T10:03:36;21.25;;;13.55;;
37517;SDS011;23366;52.498;13.446;2023-02-17T10:06:20;25.90;;;15.05;;
37517;SDS011;23366;52.498;13.446;2023-02-17T10:09:01;27.75;;;12.05;;
37517;SDS011;23366;52.498;13.446;2023-02-17T10:14:06;23.00;;;12.38;;
37517;SDS011;23366;52.498;13.446;2023-02-17T10:16:46;19.27;;;12.75;;
37517;SDS011;23366;52.498;13.446;2023-02-17T10:21:50;27.60;;;15.50;;
37517;SDS011;23366;52.498;13.446;2023-02-17T10:24:22;25.77;;;14.82;;
37517;SDS011;23366;52.498;13.446;2023-02-17T10:27:11;23.90;;;12.77;;
37517;SDS011;23366;52.498;13.446;2023-02-17T10:32:23;24.67;;;12.57;;
37517;SDS011;23366;52.498;13.446;2023-02-17T10:34:59;24.65;;;14.32;;
37517;SDS011;23366;52.498;13.446;2023-02-17T10:40:09;24.50;;;13.70;;
37517;SDS011;23366;52.498;13.446;2023-02-17T10:42:39;22.73;;;12.77;;
37517;SDS011;23366;52.498;13.446;2023-02-17T10:45:14;22.58;;;13.75;;
37517;SDS011;23366;52.498;13.446;2023-02-17T10:48:18;23.65;;;14.88;;
37517;SDS011;23366;52.498;13.446;2023-02-17T10:50:45;32.38;;;15.18;;
37517;SDS011;23366;52.498;13.446;2023-02-17T10:53:15;24.30;;;14.43;;
37517;SDS011;23366;52.498;13.446;2023-02-17T10:55:58;26.35;;;12.73;;
37517;SDS011;23366;52.498;13.446;2023-02-17T10:58:32;21.48;;;12.98;;
37517;SDS011;23366;52.498;13.446;2023-02-17T11:01:19;23.90;;;12.95;;
37517;SDS011;23366;52.498;13.446;2023-02-17T11:03:44;22.42;;;13.02;;
37517;SDS011;23366;52.498;13.446;2023-02-17T11:06:17;21.88;;;12.02;;
37517;SDS011;23366;52.498;13.446;2023-02-17T11:09:04;20.35;;;13.23;;
37517;SDS011;23366;52.498;13.446;2023-02-17T11:11:30;24.20;;;12.90;;
37517;SDS011;23366;52.498;13.446;2023-02-17T11:19:23;24.58;;;12.05;;
37517;SDS011;23366;52.498;13.446;2023-02-17T11:21:51;20.90;;;13.13;;
37517;SDS011;23366;52.498;13.446;2023-02-17T11:24:18;21.60;;;12.88;;
37517;SDS011;23366;52.498;13.446;2023-02-17T11:26:53;22.17;;;13.40;;
37517;SDS011;23366;52.498;13.446;2023-02-17T11:29:25;22.23;;;13.02;;
37517;SDS011;23366;52.498;13.446;2023-02-17T11:31:56;22.63;;;12.65;;
37517;SDS011;23366;52.498;13.446;2023-02-17T11:34:29;20.48;;;11.60;;
37517;SDS011;23366;52.498;13.446;2023-02-17T11:37:13;22.77;;;15.30;;
37517;SDS011;23366;52.498;13.446;2023-02-17T11:39:49;23.13;;;12.20;;
37517;SDS011;23366;52.498;13.446;2023-02-17T11:44:53;21.95;;;12.13;;
37517;SDS011;23366;52.498;13.446;2023-02-17T11:50:38;20.27;;;11.40;;
37517;SDS011;23366;52.498;13.446;2023-02-17T11:56:28;19.17;;;9.63;;
37517;SDS011;23366;52.498;13.446;2023-02-17T11:59:16;19.05;;;10.18;;
37517;SDS011;23366;52.498;13.446;2023-02-17T12:02:17;17.05;;;10.13;;
37517;SDS011;23366;52.498;13.446;2023-02-17T12:05:19;16.63;;;10.55;;
37517;SDS011;23366;52.498;13.446;2023-02-17T12:08:04;17.07;;;10.33;;
37517;SDS011;23366;52.498;13.446;2023-02-17T12:13:42;15.80;;;9.30;;
37517;SDS011;23366;52.498;13.446;2023-02-17T12:21:48;13.45;;;9.23;;
37517;SDS011;23366;52.498;13.446;2023-02-17T12:32:30;11.18;;;8.20;;
37517;SDS011;23366;52.498;13.446;2023-02-17T12:35:12;13.75;;;8.13;;
37517;SDS011;23366;52.498;13.446;2023-02-17T12:37:52;15.27;;;8.07;;
37517;SDS011;23366;52.498;13.446;2023-02-17T12:40:30;13.10;;;7.22;;
37517;SDS011;23366;52.498;13.446;2023-02-17T12:46:01;12.88;;;7.53;;
37517;SDS011;23366;52.498;13.446;2023-02-17T12:48:44;14.95;;;7.85;;
37517;SDS011;23366;52.498;13.446;2023-02-17T12:59:37;11.18;;;5.97;;
37517;SDS011;23366;52.498;13.446;2023-02-17T13:02:10;16.83;;;7.22;;
37517;SDS011;23366;52.498;13.446;2023-02-17T13:04:41;10.43;;;6.25;;
37517;SDS011;23366;52.498;13.446;2023-02-17T13:09:46;12.02;;;6.80;;
37517;SDS011;23366;52.498;13.446;2023-02-17T13:14:44;12.20;;;6.90;;
37517;SDS011;23366;52.498;13.446;2023-02-17T13:22:41;11.52;;;5.78;;
37517;SDS011;23366;52.498;13.446;2023-02-17T13:25:12;7.82;;;4.28;;
37517;SDS011;23366;52.498;13.446;2023-02-17T13:27:51;8.48;;;5.57;;
37517;SDS011;23366;52.498;13.446;2023-02-17T13:32:45;11.55;;;5.20;;
37517;SDS011;23366;52.498;13.446;2023-02-17T13:37:42;10.10;;;5.38;;
37517;SDS011;23366;52.498;13.446;2023-02-17T13:42:44;12.57;;;6.30;;
37517;SDS011;23366;52.498;13.446;2023-02-17T13:47:58;7.90;;;4.63;;
37517;SDS011;23366;52.498;13.446;2023-02-17T13:50:38;7.70;;;4.45;;
37517;SDS011;23366;52.498;13.446;2023-02-17T13:55:59;11.88;;;4.50;;
37517;SDS011;23366;52.498;13.446;2023-02-17T13:58:29;8.95;;;4.50;;
37517;SDS011;23366;52.498;13.446;2023-02-17T14:01:00;9.52;;;4.10;;
37517;SDS011;23366;52.498;13.446;2023-02-17T14:03:28;6.88;;;4.00;;
37517;SDS011;23366;52.498;13.446;2023-02-17T14:05:58;6.75;;;3.92;;
37517;SDS011;23366;52.498;13.446;2023-02-17T14:08:27;5.88;;;4.28;;
37517;SDS011;23366;52.498;13.446;2023-02-17T14:11:11;8.43;;;4.53;;
37517;SDS011;23366;52.498;13.446;2023-02-17T14:13:46;10.60;;;4.72;;
37517;SDS011;23366;52.498;13.446;2023-02-17T14:16:27;9.43;;;4.03;;
37517;SDS011;23366;52.498;13.446;2023-02-17T14:21:59;6.97;;;3.85;;
37517;SDS011;23366;52.498;13.446;2023-02-17T14:24:32;7.47;;;3.78;;
37517;SDS011;23366;52.498;13.446;2023-02-17T14:27:09;7.40;;;4.65;;
37517;SDS011;23366;52.498;13.446;2023-02-17T14:29:49;6.82;;;4.63;;
37517;SDS011;23366;52.498;13.446;2023-02-17T14:32:35;15.00;;;8.43;;
37517;SDS011;23366;52.498;13.446;2023-02-17T14:35:05;8.48;;;6.28;;
37517;SDS011;23366;52.498;13.446;2023-02-17T14:37:31;9.77;;;5.78;;
37517;SDS011;23366;52.498;13.446;2023-02-17T14:40:00;25.08;;;13.13;;
37517;SDS011;23366;52.498;13.446;2023-02-17T14:42:27;25.75;;;15.02;;
37517;SDS011;23366;52.498;13.446;2023-02-17T14:44:53;17.45;;;11.30;;
37517;SDS011;23366;52.498;13.446;2023-02-17T14:47:18;13.20;;;7.28;;
37517;SDS011;23366;52.498;13.446;2023-02-17T14:49:44;15.32;;;9.40;;
37517;SDS011;23366;52.498;13.446;2023-02-17T14:52:20;16.13;;;9.68;;
37517;SDS011;23366;52.498;13.446;2023-02-17T14:54:47;13.15;;;8.48;;
37517;SDS011;23366;52.498;13.446;2023-02-17T14:57:13;14.23;;;7.28;;
37517;SDS011;23366;52.498;13.446;2023-02-17T14:59:40;14.75;;;9.25;;
37517;SDS011;23366;52.498;13.446;2023-02-17T15:02:16;16.25;;;9.35;;
37517;SDS011;23366;52.498;13.446;2023-02-17T15:04:44;11.43;;;7.47;;
37517;SDS011;23366;52.498;13.446;2023-02-17T15:07:11;9.30;;;5.95;;
37517;SDS011;23366;52.498;13.446;2023-02-17T15:09:39;10.10;;;6.72;;
37517;SDS011;23366;52.498;13.446;2023-02-17T15:12:18;10.57;;;5.82;;
37517;SDS011;23366;52.498;13.446;2023-02-17T15:14:46;11.57;;;6.32;;
37517;SDS011;23366;52.498;13.446;2023-02-17T15:17:12;10.10;;;7.28;;
37517;SDS011;23366;52.498;13.446;2023-02-17T15:19:38;12.15;;;9.05;;
37517;SDS011;23366;52.498;13.446;2023-02-17T15:22:04;18.48;;;11.18;;
37517;SDS011;23366;52.498;13.446;2023-02-17T15:24:33;16.40;;;8.05;;
37517;SDS011;23366;52.498;13.446;2023-02-17T15:27:00;12.25;;;7.82;;
37517;SDS011;23366;52.498;13.446;2023-02-17T15:29:28;11.48;;;6.60;;
37517;SDS011;23366;52.498;13.446;2023-02-17T15:31:54;10.52;;;6.80;;
37517;SDS011;23366;52.498;13.446;2023-02-17T15:34:22;13.68;;;6.32;;
37517;SDS011;23366;52.498;13.446;2023-02-17T15:36:55;9.82;;;6.40;;
37517;SDS011;23366;52.498;13.446;2023-02-17T15:39:21;11.77;;;7.55;;
37517;SDS011;23366;52.498;13.446;2023-02-17T15:41:47;18.58;;;11.77;;
37517;SDS011;23366;52.498;13.446;2023-02-17T15:44:17;18.63;;;11.68;;
37517;SDS011;23366;52.498;13.446;2023-02-17T15:49:12;12.38;;;7.90;;
37517;SDS011;23366;52.498;13.446;2023-02-17T15:51:39;12.27;;;8.32;;
37517;SDS011;23366;52.498;13.446;2023-02-17T15:54:04;16.05;;;9.38;;
37517;SDS011;23366;52.498;13.446;2023-02-17T15:56:31;15.05;;;8.30;;
37517;SDS011;23366;52.498;13.446;2023-02-17T15:59:15;11.85;;;7.03;;
37517;SDS011;23366;52.498;13.446;2023-02-17T16:01:44;15.05;;;9.23;;
37517;SDS011;23366;52.498;13.446;2023-02-17T16:04:10;16.60;;;7.15;;
37517;SDS011;23366;52.498;13.446;2023-02-17T16:06:37;10.68;;;7.03;;
37517;SDS011;23366;52.498;13.446;2023-02-17T16:09:03;12.57;;;6.50;;